Disclaimer

Please do not use the information listed here in-flight or in-navigation, as they are not provided to us by the airports but are provided by volunteers, so they might be outdated.

Search


Regions


Airport information page

Radio informations:
Aerodrome flight information system (AFIS) - 122.15 MHz

Airport informations:
Latitude: 63° 02' 54.95" N
Longitude: 017° 46' 07.88" E
Elevation: 34 feet - 10 meters
Operating hours: Remarks
Operating agency: Civil government, landing fees and diplomatic clearance may be required
Timezone: UTC+1(+2DT) - Last Sunday in March to last Sunday in October
Fuel: Jet A1, without icing nhibitor.

91/96 octane gasoline, leaded, No MIL Spec.

100/130 MIL Spec, low lead, aviation gasoline (BLUE)

Runway information:
17/35 - 6565 x 148 feet< - >2001 x 45 meters

Recent METARs:
ESNK 171950Z AUTO 32006KT 9999 NCD 03/01 Q1038
ESNK 172020Z AUTO 33007KT 9999 NCD 03/01 Q1039
ESNK 172050Z AUTO 32005KT 9999 NCD 03/01 Q1039

Airport on the map: